Arvoredo, Brazil

5:51 AM BRT on August 27, 2014 (GMT -0300)
Sapiens Parque | Change Station
CLOSE
Current Station
Personal Weather Station
Location: Florianopolis, Santa Catarina
Elevation: 13 ft
Nearby Weather Stations

Elev 13 ft 27.43 °S, 48.45 °W | Updated 20 seconds ago

Clear
Clear
48.0 °F
Feels Like 48 °F
N
0.0
Wind Variable Wind from North
Gusts 0.0 mph

Today
High -- | Low -- °F
--% Chance of Precip.
Yesterday
High -- | Low -- °F
Precip. -- in
6:32 AM 5:58 PM
Waxing Crescent, 3% visible
Pressure 30.01 in
Visibility -9999.0 miles
Clouds
Windchill 48 °F
Dew Point 46 °F
Humidity 94%
Rainfall 0.00 in
Snow Depth Not available.
UV 0.0 out of 12
Pollen Not available.
Air Quality Not available.
Flu Activity Not available.
METAR SBFL 270800Z 28006KT CAVOK 13/07 Q1016

More Conditions Fewer Conditions

Pressure 30.01 in
Visibility -9999.0 miles
Clouds
Windchill 48 °F
Dew Point 46 °F
Humidity 94%
Rainfall 0.00 in
Snow Depth Not available.
UV 0.0 out of 12
Pollen Not available.
Air Quality Not available.
Flu Activity Not available.
METAR SBFL 270800Z 28006KT CAVOK 13/07 Q1016

More Conditions Fewer Conditions

10-Day Weather Forecast

Almanac

Astronomy

Aug. 27, 2014 Rise Set
Actual Time 6:32 AM BRT 5:58 PM BRT
Civil Twilight 6:08 AM BRT 6:21 PM BRT
Nautical Twilight 5:41 AM BRT 6:48 PM BRT
Astronomical Twilight 5:14 AM BRT 7:15 PM BRT
Moon 7:27 AM BRT 7:51 PM BRT
Length of Visible Light 12h 13m
Length of Day
11h 25m
Tomorrow will be 1m 30s longer.
Waxing Crescent, 3% of the Moon is Illuminated
Today
Waxing Crescent
Sep 2
First Quarter
Sep 8
Full
Sep 15
Last Quarter
Sep 24
New

Yesterday's Extremes

Country Highs Country Lows

Community

WunderPhotos

Upload Photos

1,747,657 photos uploaded!

Nearby

Snow Depth

Not available.

Earthquake Activity

City Distance Mag. Time & Date
No recent earthquake activity has been reported nearby.
Minimum magnitude displayed is 2.5.

Coastal Water Temperatures

Place Temperature
No Stations Reporting

Nearby Weather Stations